This is the latest recevied weather packets stored in our database for station/object lw9ero. If no packets are shown the sender has not sent any weather packets the latest 10 day(s).
| Time | Temp. | Humidity | Pressure | Rain* | Wind** | Luminosity | Snow |
|---|---|---|---|---|---|---|---|
| 1777666856 | 21.11° C | 67% | 1014.2 hPa | 0 mm | - | 1396 W/m² | - |
| 1777666251 | 21.11° C | 66% | 1013.9 hPa | 0 mm | - | 1396 W/m² | - |
| 1777665656 | 21.67° C | 65% | 1013.6 hPa | 0 mm | - | 1396 W/m² | - |
| 1777665038 | 21.67° C | 64% | 1013.4 hPa | 0 mm | - | 1396 W/m² | - |
| 1777664434 | 22.78° C | 64% | 1013 hPa | 0 mm | - | 1396 W/m² | - |
| 1777663847 | 23.89° C | 58% | 1012.8 hPa | 0 mm | - | 1396 W/m² | - |
| 1777663232 | 24.44° C | 58% | 1012.3 hPa | 0 mm | - | 1323 W/m² | - |
| 1777662613 | 23.89° C | 59% | 1012.2 hPa | 0 mm | - | 1323 W/m² | - |
| 1777662009 | 24.44° C | 58% | 1012.1 hPa | 0 mm | - | 1177 W/m² | - |
| 1777661400 | 25.56° C | 56% | 1012 hPa | 0 mm | - | 1177 W/m² | - |
| 1777660794 | 25.56° C | 58% | 1012 hPa | 0 mm | - | 1177 W/m² | - |
| 1777660189 | 25° C | 58% | 1011.5 hPa | 0 mm | - | 1031 W/m² | - |
| 1777659581 | 25° C | 57% | 1011.8 hPa | 0 mm | - | 1031 W/m² | - |
| 1777658370 | 25° C | 57% | 1011.5 hPa | 0 mm | - | 921 W/m² | - |
| 1777657763 | 25° C | 55% | 1011.7 hPa | 0 mm | - | 921 W/m² | - |
| 1777657159 | 25° C | 56% | 1011.7 hPa | 0 mm | - | 921 W/m² | - |
| 1777656551 | 25° C | 57% | 1011.6 hPa | 0 mm | - | 775 W/m² | - |
| 1777655944 | 25° C | 56% | 1011.6 hPa | 0 mm | - | 775 W/m² | - |
| 1777655339 | 25° C | 55% | 1011.6 hPa | 0 mm | - | 775 W/m² | - |
| 1777654732 | 24.44° C | 56% | 1011.9 hPa | 0 mm | - | 665 W/m² | - |
| 1777654126 | 25° C | 56% | 1011.9 hPa | 0 mm | - | 665 W/m² | - |
| 1777653520 | 24.44° C | 56% | 1011.9 hPa | 0 mm | - | 665 W/m² | - |
| 1777652928 | 24.44° C | 56% | 1012 hPa | 0 mm | - | 518 W/m² | - |
| 1777652307 | 24.44° C | 57% | 1012.3 hPa | 0 mm | - | 518 W/m² | - |
| 1777651701 | 24.44° C | 58% | 1012.6 hPa | 0 mm | - | 518 W/m² | - |
* Rain latest hour (hover to see other rain measurements)
** Current wind speed in m/s (hover to see current wind gust speed)